Time;durP1;ratioP1;P1;durP2;ratioP2;P2;SDS_P1;SDS_P2;PMS_P1;PMS_P2;Temp;Humidity;BMP_temperature;BMP_pressure;BME280_temperature;BME280_humidity;BME280_pressure;Samples;Min_cycle;Max_cycle;Signal;HPM_P1;HPM_P2
2020/12/19 05:20:46;;;;;;;11.80;6.55;;;0.60;99.90;;;;;;4856077;29;19996;-75
2020/12/19 05:23:13;;;;;;;13.65;7.00;;;0.60;99.90;;;;;;4860324;29;20114;-75
2020/12/19 05:25:39;;;;;;;11.90;6.55;;;0.60;99.90;;;;;;4849178;29;20034;-73
2020/12/19 05:28:06;;;;;;;15.35;7.95;;;0.60;99.90;;;;;;4858109;29;20058;-73
2020/12/19 05:30:32;;;;;;;13.52;7.32;;;0.60;99.90;;;;;;4847088;29;20028;-76
2020/12/19 05:33:00;;;;;;;12.65;7.25;;;0.60;99.90;;;;;;4860235;29;20021;-76
2020/12/19 05:35:26;;;;;;;12.45;7.15;;;0.50;99.90;;;;;;4860120;29;20041;-79
2020/12/19 05:38:05;;;;;;;12.80;7.38;;;0.50;99.90;;;;;;4860407;29;20473;-76
2020/12/19 05:40:33;;;;;;;15.05;7.13;;;0.50;99.90;;;;;;4859574;29;20029;-89
2020/12/19 05:43:00;;;;;;;10.75;6.57;;;0.70;99.90;;;;;;4848744;29;20036;-77
2020/12/19 05:45:28;;;;;;;13.07;7.68;;;1.20;99.90;;;;;;4860526;29;20061;-86
2020/12/19 05:47:53;;;;;;;217.48;106.32;;;1.40;99.90;;;;;;4860310;29;20116;-82
2020/12/19 05:50:21;;;;;;;38.67;19.40;;;1.30;99.90;;;;;;4859947;29;20104;-85
2020/12/19 05:52:47;;;;;;;42.80;24.60;;;1.20;99.90;;;;;;4857506;29;20030;-74
2020/12/19 05:55:15;;;;;;;24.20;12.18;;;1.00;99.90;;;;;;4859298;29;20029;-82
2020/12/19 05:57:41;;;;;;;17.42;8.40;;;0.90;99.90;;;;;;4855554;29;20040;-82
2020/12/19 06:00:12;;;;;;;32.28;12.85;;;0.90;99.90;;;;;;4858395;29;20439;-82
2020/12/19 06:02:39;;;;;;;20.75;9.07;;;0.90;99.90;;;;;;4857658;29;20066;-81
2020/12/19 06:05:13;;;;;;;466.42;124.78;;;0.90;99.90;;;;;;4858573;29;20037;-82
2020/12/19 06:07:44;;;;;;;103.40;35.75;;;0.90;99.90;;;;;;4859986;29;20029;-84
2020/12/19 06:10:15;;;;;;;30.00;12.77;;;0.90;99.90;;;;;;4855050;29;20085;-83
2020/12/19 06:12:44;;;;;;;28.65;10.55;;;0.90;99.90;;;;;;4855068;29;20072;-84
2020/12/19 06:15:16;;;;;;;30.33;11.30;;;0.80;99.90;;;;;;4855507;29;20447;-82
2020/12/19 06:17:53;;;;;;;23.15;10.93;;;0.80;99.90;;;;;;4858089;29;20045;-85
2020/12/19 06:20:20;;;;;;;23.42;9.90;;;0.70;99.90;;;;;;4838968;29;20050;-83
2020/12/19 06:22:46;;;;;;;23.67;10.40;;;0.80;99.90;;;;;;4837767;29;20033;-84
2020/12/19 06:25:12;;;;;;;25.20;11.38;;;0.80;99.90;;;;;;4837175;29;20034;-76
2020/12/19 06:27:39;;;;;;;29.42;11.30;;;0.80;99.90;;;;;;4838195;29;20475;-74
2020/12/19 06:30:05;;;;;;;20.83;9.68;;;0.90;99.90;;;;;;4837179;29;20138;-74
2020/12/19 06:32:31;;;;;;;23.85;10.23;;;0.90;99.90;;;;;;4833312;29;20390;-76
2020/12/19 06:35:11;;;;;;;21.80;10.38;;;1.00;99.90;;;;;;4828687;29;20470;-76
2020/12/19 06:37:40;;;;;;;19.10;9.40;;;1.00;99.90;;;;;;4826008;29;20034;-79
2020/12/19 06:40:26;;;;;;;29.30;10.07;;;0.90;99.90;;;;;;4829133;29;20041;-77
2020/12/19 06:43:14;;;;;;;28.15;9.95;;;0.90;99.90;;;;;;4825643;29;20042;-76
2020/12/19 06:45:40;;;;;;;22.77;10.18;;;0.90;99.90;;;;;;4831720;29;20036;-76
2020/12/19 06:48:32;;;;;;;24.40;10.63;;;0.80;99.90;;;;;;4832099;29;20034;-79
2020/12/19 06:51:03;;;;;;;22.85;9.52;;;0.90;99.90;;;;;;4831715;29;20498;-79
2020/12/19 06:53:30;;;;;;;26.27;10.43;;;0.90;99.90;;;;;;4842899;29;20033;-76
2020/12/19 06:55:59;;;;;;;27.17;11.00;;;0.90;99.90;;;;;;4842692;29;20038;-76
2020/12/19 06:58:33;;;;;;;25.25;9.52;;;0.90;99.90;;;;;;4831962;29;20026;-76
2020/12/19 07:01:00;;;;;;;25.73;11.15;;;0.90;99.90;;;;;;4833659;29;20037;-83
2020/12/19 07:03:41;;;;;;;23.95;10.30;;;0.90;99.90;;;;;;4831843;29;20034;-77
2020/12/19 07:06:12;;;;;;;18.65;9.35;;;0.90;99.90;;;;;;4831825;29;20027;-80
2020/12/19 07:08:37;;;;;;;;;;;0.90;99.90;;;;;;4832125;29;20491;-79
2020/12/19 07:11:03;;;;;;;20.75;9.18;;;0.90;99.90;;;;;;4837000;29;19915;-81
2020/12/19 07:13:57;;;;;;;19.00;9.63;;;1.60;99.90;;;;;;4838986;29;20074;-83
2020/12/19 07:16:46;;;;;;;13.10;6.35;;;1.50;99.90;;;;;;4831621;29;20410;-82
2020/12/19 07:19:16;;;;;;;20.48;9.93;;;1.80;99.90;;;;;;4834152;29;20042;-86
2020/12/19 07:21:42;;;;;;;16.65;9.32;;;2.10;99.90;;;;;;4846524;29;20034;-83
2020/12/19 07:24:08;;;;;;;18.63;7.95;;;1.80;99.90;;;;;;4844232;29;20084;-75
2020/12/19 07:26:34;;;;;;;15.60;8.35;;;1.70;99.90;;;;;;4839383;29;20038;-72
2020/12/19 07:29:00;;;;;;;14.70;7.93;;;1.50;99.90;;;;;;4846163;29;20021;-72
2020/12/19 07:31:26;;;;;;;17.33;8.30;;;1.30;99.90;;;;;;4843672;29;20033;-71
2020/12/19 07:33:52;;;;;;;14.38;7.93;;;1.20;99.90;;;;;;4843503;29;20075;-72
2020/12/19 07:36:19;;;;;;;16.80;9.57;;;1.10;99.90;;;;;;4843048;29;20034;-72
2020/12/19 07:38:45;;;;;;;17.23;8.65;;;1.00;99.90;;;;;;4841275;29;20493;-72
2020/12/19 07:41:11;;;;;;;15.00;8.45;;;1.00;99.90;;;;;;4858271;29;20493;-72
2020/12/19 07:43:37;;;;;;;13.40;7.40;;;1.00;99.90;;;;;;4843608;29;20038;-76
2020/12/19 07:46:02;;;;;;;16.00;8.10;;;1.00;99.90;;;;;;4831959;29;20117;-83
2020/12/19 07:48:28;;;;;;;13.68;7.50;;;1.00;99.90;;;;;;4841035;29;20066;-83
2020/12/19 07:50:54;;;;;;;10.77;7.00;;;1.30;99.90;;;;;;4841972;29;20114;-80
2020/12/19 07:53:19;;;;;;;11.27;6.25;;;1.40;99.90;;;;;;4844190;29;20046;-81
2020/12/19 07:55:50;;;;;;;9.70;6.47;;;1.50;99.90;;;;;;4841136;29;20038;-80
2020/12/19 07:58:19;;;;;;;15.30;7.30;;;1.50;99.90;;;;;;4842023;29;20066;-80
2020/12/19 08:00:45;;;;;;;12.82;7.13;;;1.50;99.90;;;;;;4841408;29;20053;-79
2020/12/19 08:03:12;;;;;;;11.60;6.22;;;1.50;99.90;;;;;;4842509;29;20058;-81
2020/12/19 08:05:37;;;;;;;12.60;6.97;;;1.50;99.90;;;;;;4838178;29;20030;-80
2020/12/19 08:08:03;;;;;;;11.48;6.88;;;1.60;99.90;;;;;;4838173;29;20025;-75
2020/12/19 08:10:29;;;;;;;10.38;6.32;;;1.60;99.90;;;;;;4837887;29;20030;-77
2020/12/19 08:12:55;;;;;;;8.75;5.53;;;1.60;99.90;;;;;;4834125;29;20030;-76
2020/12/19 08:15:23;;;;;;;9.77;5.63;;;1.50;99.90;;;;;;4840236;29;20385;-75
2020/12/19 08:18:01;;;;;;;10.63;6.50;;;1.60;99.90;;;;;;4841877;29;20480;-74
2020/12/19 08:20:33;;;;;;;10.70;6.38;;;1.60;99.90;;;;;;4842997;29;20098;-74
2020/12/19 08:23:07;;;;;;;11.43;6.55;;;1.60;99.90;;;;;;4842652;29;20109;-79
2020/12/19 08:25:33;;;;;;;11.00;5.85;;;1.60;99.90;;;;;;4841902;29;20038;-78
2020/12/19 08:27:59;;;;;;;12.45;5.95;;;1.70;99.90;;;;;;4843699;29;20045;-78
2020/12/19 08:30:27;;;;;;;17.05;7.03;;;2.00;99.90;;;;;;4844032;29;20085;-71
2020/12/19 08:33:03;;;;;;;12.45;7.05;;;2.50;99.90;;;;;;4844183;29;20068;-75
2020/12/19 08:35:42;;;;;;;11.40;7.22;;;3.10;99.90;;;;;;4842706;29;20461;-79
2020/12/19 08:38:09;;;;;;;13.45;6.85;;;3.30;99.90;;;;;;4842508;29;20097;-78
2020/12/19 08:40:40;;;;;;;11.50;7.03;;;3.00;99.90;;;;;;4842761;29;20076;-72
2020/12/19 08:43:06;;;;;;;;;;;2.70;99.90;;;;;;4843216;29;20026;-71
2020/12/19 08:45:36;;;;;;;11.57;6.68;;;2.50;99.90;;;;;;4827199;29;20348;-75
2020/12/19 08:48:09;;;;;;;15.77;7.97;;;2.30;99.90;;;;;;4824610;29;20121;-71
2020/12/19 08:50:40;;;;;;;14.43;7.57;;;2.20;99.90;;;;;;4840013;29;20041;-72
2020/12/19 08:53:12;;;;;;;16.33;7.78;;;2.00;99.90;;;;;;4834624;29;20395;-72
2020/12/19 08:55:39;;;;;;;14.98;8.65;;;1.90;99.90;;;;;;4837955;29;20118;-73
2020/12/19 08:58:05;;;;;;;13.23;8.00;;;1.90;99.90;;;;;;4825796;29;20063;-75
2020/12/19 09:00:36;;;;;;;16.20;7.72;;;1.80;99.90;;;;;;4838368;29;20059;-73
2020/12/19 09:03:09;;;;;;;14.32;7.68;;;1.70;99.90;;;;;;4842198;29;20090;-72
2020/12/19 09:05:38;;;;;;;13.95;7.60;;;1.60;99.90;;;;;;4830304;29;20521;-71
2020/12/19 09:08:04;;;;;;;11.75;6.53;;;1.50;99.90;;;;;;4842247;29;20074;-71
2020/12/19 09:10:32;;;;;;;13.93;7.38;;;1.50;99.90;;;;;;4831257;29;20038;-72
2020/12/19 09:13:19;;;;;;;12.43;6.75;;;1.40;99.90;;;;;;4829372;29;20030;-74
2020/12/19 09:15:45;;;;;;;13.40;6.82;;;1.40;99.90;;;;;;4830613;29;20436;-74
2020/12/19 09:18:32;;;;;;;12.95;7.53;;;1.40;99.90;;;;;;4830267;29;20030;-74
2020/12/19 09:21:00;;;;;;;12.13;6.60;;;1.40;99.90;;;;;;4841485;29;20045;-73
2020/12/19 09:23:28;;;;;;;11.63;6.55;;;1.40;99.90;;;;;;4835912;29;20030;-72
2020/12/19 09:25:55;;;;;;;13.48;7.00;;;1.30;99.90;;;;;;4836625;29;20108;-72
2020/12/19 09:28:23;;;;;;;13.45;6.25;;;1.30;99.90;;;;;;4838051;29;20049;-72
2020/12/19 09:30:50;;;;;;;12.98;6.72;;;1.20;99.90;;;;;;4835323;29;20407;-75
2020/12/19 09:33:16;;;;;;;14.45;7.18;;;1.20;99.90;;;;;;4836010;29;20026;-75
2020/12/19 09:35:42;;;;;;;8.70;5.43;;;1.20;99.90;;;;;;4841423;29;20070;-75
2020/12/19 09:38:08;;;;;;;9.32;5.68;;;1.20;99.90;;;;;;4831412;29;20046;-74
2020/12/19 09:40:34;;;;;;;9.48;6.18;;;1.20;99.90;;;;;;4839362;29;20085;-79
2020/12/19 09:42:59;;;;;;;11.60;6.25;;;1.20;99.90;;;;;;4841336;29;20038;-74
2020/12/19 09:45:25;;;;;;;15.23;6.32;;;1.20;99.90;;;;;;4841617;29;20605;-74
2020/12/19 09:47:55;;;;;;;10.50;5.93;;;1.20;99.90;;;;;;4841329;29;20038;-75
2020/12/19 09:50:21;;;;;;;12.20;6.40;;;1.20;99.90;;;;;;4833098;29;20022;-75
2020/12/19 09:52:48;;;;;;;12.43;7.10;;;1.30;99.90;;;;;;4837188;29;20026;-75
2020/12/19 09:55:14;;;;;;;11.57;6.72;;;1.30;99.90;;;;;;4839257;29;20026;-74
2020/12/19 09:57:40;;;;;;;10.95;6.18;;;1.30;99.90;;;;;;4833120;29;20038;-76
2020/12/19 10:00:07;;;;;;;9.18;5.93;;;1.40;99.90;;;;;;4832926;29;20513;-76
2020/12/19 10:02:33;;;;;;;10.13;5.45;;;1.40;99.90;;;;;;4852359;29;20034;-77
2020/12/19 10:04:59;;;;;;;10.18;5.57;;;1.50;99.90;;;;;;4827692;29;20368;-74
2020/12/19 10:07:24;;;;;;;8.60;5.55;;;1.50;99.90;;;;;;4832703;29;20044;-73
2020/12/19 10:09:51;;;;;;;9.23;5.68;;;1.50;99.90;;;;;;4835071;29;20030;-76
2020/12/19 10:12:16;;;;;;;8.70;5.40;;;1.50;99.90;;;;;;4830343;29;20026;-78
2020/12/19 10:14:42;;;;;;;12.25;5.80;;;1.50;99.90;;;;;;4831573;29;20029;-78
2020/12/19 10:17:08;;;;;;;8.75;5.85;;;1.60;99.90;;;;;;4838571;29;20038;-78
2020/12/19 10:19:34;;;;;;;9.77;5.90;;;1.60;99.90;;;;;;4827028;29;20050;-78
2020/12/19 10:22:00;;;;;;;12.85;7.10;;;1.60;99.90;;;;;;4827589;29;20613;-75
2020/12/19 10:24:26;;;;;;;15.80;6.65;;;1.60;99.90;;;;;;4832877;29;20030;-75
2020/12/19 10:26:52;;;;;;;12.73;7.38;;;1.70;99.90;;;;;;4837283;29;20121;-75
2020/12/19 10:29:18;;;;;;;13.15;6.65;;;1.70;99.90;;;;;;4840892;29;20446;-78
2020/12/19 10:31:44;;;;;;;12.65;6.20;;;1.70;99.90;;;;;;4840847;29;20031;-78
2020/12/19 10:34:10;;;;;;;11.70;6.80;;;1.70;99.90;;;;;;4840787;29;20045;-78
2020/12/19 10:36:35;;;;;;;11.68;6.95;;;1.80;99.90;;;;;;4840743;29;20037;-84
2020/12/19 10:39:02;;;;;;;15.02;7.05;;;1.80;99.90;;;;;;4827768;29;20026;-79
2020/12/19 10:41:27;;;;;;;16.98;8.23;;;1.80;99.90;;;;;;4840912;29;20042;-79
2020/12/19 10:43:53;;;;;;;14.48;7.28;;;1.90;99.90;;;;;;4828409;29;20177;-79
2020/12/19 10:46:27;;;;;;;15.20;8.13;;;2.00;99.90;;;;;;4841056;29;20033;-79
2020/12/19 10:48:53;;;;;;;24.33;8.00;;;1.90;99.90;;;;;;4840889;29;20038;-81
2020/12/19 10:51:28;;;;;;;26.55;9.30;;;1.80;99.90;;;;;;4841075;29;20070;-81
2020/12/19 10:53:55;;;;;;;15.23;7.65;;;1.80;99.90;;;;;;4839561;29;20060;-81
2020/12/19 10:56:21;;;;;;;15.43;7.97;;;1.80;99.90;;;;;;4822765;29;20030;-79
2020/12/19 10:58:47;;;;;;;15.90;7.95;;;1.80;99.90;;;;;;4835047;29;20038;-82
2020/12/19 11:01:13;;;;;;;18.98;8.15;;;1.80;99.90;;;;;;4841076;29;20086;-81
2020/12/19 11:03:43;;;;;;;18.38;8.38;;;1.90;99.90;;;;;;4841391;29;20029;-79
2020/12/19 11:06:21;;;;;;;13.70;5.83;;;1.90;99.90;;;;;;4836700;29;20034;-78
2020/12/19 11:08:48;;;;;;;19.35;7.50;;;2.90;99.90;;;;;;4833223;29;20030;-85
2020/12/19 11:11:13;;;;;;;12.25;7.22;;;3.10;99.90;;;;;;4838709;29;20033;-83
2020/12/19 11:13:40;;;;;;;19.02;6.93;;;2.80;99.90;;;;;;4839303;29;20038;-85
2020/12/19 11:16:06;;;;;;;21.67;7.13;;;2.50;99.90;;;;;;4834347;29;20030;-80
2020/12/19 11:18:32;;;;;;;20.88;7.60;;;2.40;99.90;;;;;;4834630;29;20038;-80
2020/12/19 11:20:57;;;;;;;12.70;6.55;;;2.30;99.90;;;;;;4837154;29;20034;-79
2020/12/19 11:23:23;;;;;;;15.65;6.72;;;2.20;99.90;;;;;;4827601;29;20030;-79
2020/12/19 11:25:52;;;;;;;20.83;7.93;;;2.10;99.90;;;;;;4838369;29;20086;-80
2020/12/19 11:28:18;;;;;;;13.85;7.47;;;2.10;99.90;;;;;;4837310;29;20109;-77
2020/12/19 11:30:44;;;;;;;17.40;8.07;;;2.00;99.90;;;;;;4837809;29;20509;-77
2020/12/19 11:33:10;;;;;;;15.85;8.20;;;2.10;99.90;;;;;;4837130;29;20026;-75
2020/12/19 11:35:35;;;;;;;20.70;7.68;;;2.00;99.90;;;;;;4839097;29;20498;-84
2020/12/19 11:38:01;;;;;;;14.77;7.43;;;2.10;99.90;;;;;;4827966;29;20037;-83
2020/12/19 11:40:27;;;;;;;14.82;7.53;;;2.10;99.90;;;;;;4830652;29;20029;-84
2020/12/19 11:42:53;;;;;;;14.45;6.50;;;2.10;99.90;;;;;;4827786;29;20034;-80
2020/12/19 11:45:19;;;;;;;19.25;6.90;;;2.10;99.90;;;;;;4840573;29;20026;-81
2020/12/19 11:47:44;;;;;;;16.15;7.03;;;2.10;99.90;;;;;;4828084;29;20040;-83
2020/12/19 11:50:10;;;;;;;16.05;7.60;;;2.10;99.90;;;;;;4833412;29;20034;-82
2020/12/19 11:52:36;;;;;;;19.95;6.72;;;2.10;99.90;;;;;;4843137;29;20026;-83
2020/12/19 11:55:01;;;;;;;12.35;5.82;;;2.20;99.90;;;;;;4850556;29;20074;-80
2020/12/19 11:57:27;;;;;;;13.82;6.15;;;2.10;99.90;;;;;;4843558;29;20394;-81
2020/12/19 11:59:53;;;;;;;12.43;5.88;;;2.10;99.90;;;;;;4843257;29;20054;-84
2020/12/19 12:02:18;;;;;;;10.13;4.93;;;2.10;99.90;;;;;;4843269;29;20037;-83
2020/12/19 12:04:44;;;;;;;10.40;5.00;;;2.20;99.90;;;;;;4843397;29;20074;-78
2020/12/19 12:07:10;;;;;;;7.43;4.60;;;2.20;99.90;;;;;;4831687;29;20023;-76
2020/12/19 12:09:35;;;;;;;12.55;4.75;;;2.20;99.90;;;;;;4841806;29;20599;-77
2020/12/19 12:12:05;;;;;;;16.63;4.95;;;2.20;99.90;;;;;;4833503;29;20026;-79
2020/12/19 12:14:30;;;;;;;10.25;4.47;;;2.20;99.90;;;;;;4854465;29;20402;-79
2020/12/19 12:16:56;;;;;;;10.80;4.55;;;2.20;99.90;;;;;;4856828;29;20049;-77
2020/12/19 12:19:22;;;;;;;12.65;4.55;;;2.20;99.90;;;;;;4842953;29;20058;-76
2020/12/19 12:21:48;;;;;;;12.00;5.00;;;2.30;99.90;;;;;;4843156;29;20493;-77
2020/12/19 12:24:13;;;;;;;3.15;2.13;;;2.30;99.90;;;;;;4843076;29;20030;-71
2020/12/19 12:26:39;;;;;;;4.57;2.80;;;5.20;99.90;;;;;;4843033;29;20112;-72
2020/12/19 12:29:05;;;;;;;4.82;2.50;;;8.60;99.90;;;;;;4836524;29;20467;-72
2020/12/19 12:31:32;;;;;;;6.93;2.33;;;10.80;99.90;;;;;;4836411;29;20474;-77
2020/12/19 12:33:59;;;;;;;13.18;2.92;;;12.00;93.60;;;;;;4837832;29;20105;-77
2020/12/19 12:36:30;;;;;;;8.50;3.10;;;10.90;85.50;;;;;;4824609;29;20034;-77
2020/12/19 12:38:56;;;;;;;7.25;2.35;;;9.00;88.00;;;;;;4841152;29;20030;-77
2020/12/19 12:41:22;;;;;;;6.93;3.17;;;7.40;94.30;;;;;;4832457;29;20157;-77
2020/12/19 12:43:48;;;;;;;6.10;3.22;;;6.20;99.90;;;;;;4839241;29;20100;-77
2020/12/19 12:46:15;;;;;;;5.72;2.33;;;5.30;99.90;;;;;;4835324;29;20022;-77
2020/12/19 12:48:42;;;;;;;9.45;2.03;;;4.80;99.90;;;;;;4837424;29;20069;-77
2020/12/19 12:51:09;;;;;;;5.93;2.28;;;4.40;99.90;;;;;;4836283;29;20490;-77
2020/12/19 12:53:35;;;;;;;7.85;2.35;;;4.20;99.90;;;;;;4835862;29;20030;-77
2020/12/19 12:56:01;;;;;;;8.30;2.30;;;3.90;99.90;;;;;;4842290;29;20120;-77
2020/12/19 12:58:26;;;;;;;6.28;2.15;;;3.80;99.90;;;;;;4842360;29;20125;-77
2020/12/19 13:00:52;;;;;;;5.40;1.90;;;3.60;99.90;;;;;;4842263;29;20053;-77
2020/12/19 13:03:18;;;;;;;4.80;1.55;;;4.20;99.90;;;;;;4842690;29;20482;-76
2020/12/19 13:05:44;;;;;;;5.05;1.85;;;4.70;99.90;;;;;;4842057;29;20030;-76
2020/12/19 13:08:09;;;;;;;5.97;1.80;;;4.70;99.90;;;;;;4842144;29;20475;-77
2020/12/19 13:10:35;;;;;;;3.88;1.90;;;4.40;99.90;;;;;;4842062;29;20414;-81
2020/12/19 13:13:01;;;;;;;9.30;2.13;;;4.10;99.90;;;;;;4841978;29;20044;-81
2020/12/19 13:15:27;;;;;;;3.45;1.52;;;4.40;99.90;;;;;;4842190;29;20042;-81
2020/12/19 13:17:53;;;;;;;7.18;1.90;;;4.70;99.90;;;;;;4839724;29;20050;-81
2020/12/19 13:20:18;;;;;;;3.60;1.90;;;4.70;99.90;;;;;;4840598;29;20050;-80
2020/12/19 13:22:44;;;;;;;8.43;1.67;;;4.50;99.90;;;;;;4839730;29;20037;-80
2020/12/19 13:25:10;;;;;;;7.22;1.80;;;4.20;99.90;;;;;;4837143;29;20026;-78
2020/12/19 13:27:36;;;;;;;8.05;2.13;;;4.00;99.90;;;;;;4838610;29;20438;-78
2020/12/19 13:30:02;;;;;;;6.35;2.28;;;3.90;99.90;;;;;;4838727;29;20124;-77
2020/12/19 13:32:28;;;;;;;8.82;2.17;;;3.80;99.90;;;;;;4839775;29;20042;-80
2020/12/19 13:34:54;;;;;;;5.00;2.40;;;3.90;99.90;;;;;;4840615;29;20490;-78
2020/12/19 13:37:20;;;;;;;5.93;2.40;;;3.90;99.90;;;;;;4839600;29;20049;-79
2020/12/19 13:39:45;;;;;;;4.45;2.33;;;3.80;99.90;;;;;;4839017;29;20431;-78
2020/12/19 13:42:11;;;;;;;4.45;2.30;;;3.70;99.90;;;;;;4839632;29;20171;-78
2020/12/19 13:44:37;;;;;;;6.57;2.85;;;3.80;99.90;;;;;;4840058;29;20378;-78
2020/12/19 13:47:03;;;;;;;2.90;1.95;;;4.00;99.90;;;;;;4840636;29;20030;-78
2020/12/19 13:49:29;;;;;;;6.10;2.45;;;3.80;99.90;;;;;;4841707;29;20494;-78
2020/12/19 13:51:55;;;;;;;5.65;1.98;;;3.80;99.90;;;;;;4840248;29;20475;-78
2020/12/19 13:54:20;;;;;;;8.45;2.20;;;3.80;99.90;;;;;;4839777;29;20063;-78
2020/12/19 13:56:46;;;;;;;4.43;1.75;;;4.00;99.90;;;;;;4840712;29;20065;-78
2020/12/19 13:59:12;;;;;;;5.65;1.83;;;4.10;99.90;;;;;;4837271;29;20030;-75
2020/12/19 14:01:38;;;;;;;3.45;2.10;;;4.20;99.90;;;;;;4838547;29;20030;-80
2020/12/19 14:04:05;;;;;;;1.55;1.40;;;4.20;99.90;;;;;;4837619;29;20063;-80
2020/12/19 14:06:32;;;;;;;2.70;1.40;;;4.20;99.90;;;;;;4838525;29;20104;-79
2020/12/19 14:09:00;;;;;;;2.47;1.50;;;4.20;99.90;;;;;;4840704;29;20032;-76
2020/12/19 14:11:28;;;;;;;2.22;1.20;;;4.30;99.90;;;;;;4837307;29;20030;-80
2020/12/19 14:13:54;;;;;;;2.30;1.40;;;4.60;99.90;;;;;;4839021;29;20108;-79
2020/12/19 14:16:31;;;;;;;4.07;1.60;;;4.80;99.90;;;;;;4837534;29;20063;-79
2020/12/19 14:18:57;;;;;;;2.03;1.55;;;5.00;99.90;;;;;;4834455;29;20060;-80
2020/12/19 14:21:23;;;;;;;1.70;1.00;;;4.90;99.90;;;;;;4838236;29;20069;-79
2020/12/19 14:23:49;;;;;;;4.00;1.67;;;4.60;99.90;;;;;;4853204;29;20059;-80
2020/12/19 14:26:26;;;;;;;4.93;1.50;;;4.70;99.90;;;;;;4837729;29;20075;-79
2020/12/19 14:28:53;;;;;;;4.40;1.50;;;4.90;99.90;;;;;;4839901;29;20082;-84
2020/12/19 14:31:20;;;;;;;3.53;1.50;;;5.10;99.90;;;;;;4837415;29;20030;-79
2020/12/19 14:33:47;;;;;;;2.65;1.73;;;5.20;99.90;;;;;;4837058;29;20054;-81
2020/12/19 14:36:31;;;;;;;2.95;1.67;;;5.20;99.90;;;;;;4834779;29;20168;-84
2020/12/19 14:38:57;;;;;;;4.50;1.77;;;5.10;99.90;;;;;;4835422;29;20026;-85
2020/12/19 14:41:24;;;;;;;5.30;1.83;;;5.10;99.90;;;;;;4838024;29;20385;-80
2020/12/19 14:43:50;;;;;;;7.47;1.77;;;5.10;99.90;;;;;;4835782;29;20518;-81
2020/12/19 14:46:17;;;;;;;4.25;1.58;;;5.30;99.90;;;;;;4838568;29;20053;-82
2020/12/19 14:48:47;;;;;;;2.28;1.58;;;5.30;99.90;;;;;;4837844;29;20436;-83
2020/12/19 14:51:15;;;;;;;2.05;1.50;;;5.40;99.90;;;;;;4826263;29;20033;-84
2020/12/19 14:53:41;;;;;;;2.38;1.50;;;5.60;99.90;;;;;;4828801;29;20104;-84
2020/12/19 14:56:08;;;;;;;9.23;1.60;;;5.80;99.90;;;;;;4826097;29;20148;-85
2020/12/19 14:58:35;;;;;;;3.95;2.00;;;5.90;99.90;;;;;;4826989;29;20045;-86
2020/12/19 15:01:01;;;;;;;7.75;1.58;;;6.00;99.90;;;;;;4840342;29;20117;-86
2020/12/19 15:03:27;;;;;;;2.80;1.67;;;6.00;99.90;;;;;;4841207;29;20143;-87
2020/12/19 15:05:53;;;;;;;4.38;1.85;;;5.90;99.90;;;;;;4844685;29;20442;-88
2020/12/19 15:08:18;;;;;;;18.85;3.25;;;5.80;99.90;;;;;;4843922;29;20174;-84
2020/12/19 15:10:44;;;;;;;7.88;3.05;;;5.80;99.90;;;;;;4844305;29;20063;-84
2020/12/19 15:13:10;;;;;;;12.27;2.80;;;5.70;99.90;;;;;;4844557;29;20034;-85
2020/12/19 15:15:35;;;;;;;11.18;2.50;;;5.70;99.90;;;;;;4842701;29;20101;-85
2020/12/19 15:18:01;;;;;;;6.07;2.58;;;5.70;99.90;;;;;;4843099;29;20046;-84
2020/12/19 15:20:27;;;;;;;10.98;2.42;;;5.70;99.90;;;;;;4840820;29;20054;-83
2020/12/19 15:22:52;;;;;;;15.65;2.85;;;5.70;99.90;;;;;;4837579;29;20027;-84
2020/12/19 15:25:18;;;;;;;17.88;2.78;;;5.80;99.90;;;;;;4838193;29;20398;-83
2020/12/19 15:27:44;;;;;;;12.25;2.15;;;5.90;99.90;;;;;;4842523;29;20037;-84
2020/12/19 15:30:11;;;;;;;7.97;2.58;;;5.90;99.90;;;;;;4830858;29;20038;-85
2020/12/19 15:32:37;;;;;;;13.25;2.38;;;6.00;99.90;;;;;;4843970;29;20623;-85
2020/12/19 15:35:03;;;;;;;12.32;2.42;;;6.00;99.90;;;;;;4843801;29;20070;-85
2020/12/19 15:37:29;;;;;;;12.32;2.75;;;6.00;99.90;;;;;;4843743;29;20137;-84
2020/12/19 15:39:54;;;;;;;12.70;2.67;;;6.00;99.90;;;;;;4838713;29;20530;-83
2020/12/19 15:42:20;;;;;;;9.70;3.25;;;6.00;99.90;;;;;;4838907;29;20029;-85
2020/12/19 15:44:46;;;;;;;14.98;3.72;;;6.00;99.90;;;;;;4842690;29;20034;-84
2020/12/19 15:47:11;;;;;;;7.05;3.22;;;5.80;99.90;;;;;;4841186;29;20040;-85
2020/12/19 15:49:37;;;;;;;24.67;3.60;;;5.50;99.90;;;;;;4839856;29;20129;-76
2020/12/19 15:52:04;;;;;;;13.90;3.78;;;5.30;99.90;;;;;;4840723;29;20042;-77
2020/12/19 15:54:30;;;;;;;20.95;3.85;;;5.10;99.90;;;;;;4840932;29;20030;-76
2020/12/19 15:56:55;;;;;;;10.13;3.65;;;5.00;99.90;;;;;;4843311;29;20077;-76
2020/12/19 15:59:21;;;;;;;23.50;3.95;;;4.90;99.90;;;;;;4840678;29;20046;-76
2020/12/19 16:01:47;;;;;;;15.60;4.32;;;4.90;99.90;;;;;;4841092;29;20384;-77
2020/12/19 16:04:13;;;;;;;7.85;4.05;;;4.80;99.90;;;;;;4838208;29;20057;-76
2020/12/19 16:06:40;;;;;;;26.17;5.13;;;4.70;99.90;;;;;;4841137;29;20113;-77
2020/12/19 16:09:06;;;;;;;11.85;4.30;;;4.60;99.90;;;;;;4839795;29;20037;-77
2020/12/19 16:11:32;;;;;;;29.45;5.00;;;4.60;99.90;;;;;;4840800;29;20026;-77
2020/12/19 16:13:57;;;;;;;37.17;4.15;;;4.50;99.90;;;;;;4834451;29;20069;-80
2020/12/19 16:16:23;;;;;;;24.27;3.78;;;4.50;99.90;;;;;;4837691;29;20045;-78
2020/12/19 16:18:49;;;;;;;18.98;4.45;;;4.40;99.90;;;;;;4840354;29;20038;-79
2020/12/19 16:21:16;;;;;;;17.00;4.88;;;4.30;99.90;;;;;;4839913;29;20550;-78
2020/12/19 16:23:48;;;;;;;31.92;6.53;;;4.30;99.90;;;;;;4850864;29;20037;-80
2020/12/19 16:26:13;;;;;;;25.20;5.90;;;4.20;99.90;;;;;;4835298;29;20026;-77
2020/12/19 16:28:43;;;;;;;19.38;6.50;;;4.20;99.90;;;;;;4840587;29;20444;-74
2020/12/19 16:31:09;;;;;;;18.67;7.10;;;4.10;99.90;;;;;;4842996;29;20038;-76
2020/12/19 16:33:34;;;;;;;26.60;7.72;;;5.50;99.90;;;;;;4842846;29;20135;-76
2020/12/19 16:36:00;;;;;;;24.02;6.65;;;5.60;99.90;;;;;;4841257;29;20061;-76
2020/12/19 16:38:26;;;;;;;18.42;6.20;;;5.30;99.90;;;;;;4842812;29;20040;-81
2020/12/19 16:40:52;;;;;;;18.67;6.13;;;5.00;99.90;;;;;;4829969;29;20418;-85
2020/12/19 16:43:20;;;;;;;13.93;6.00;;;4.80;99.90;;;;;;4848533;29;20700;-83
2020/12/19 16:45:46;;;;;;;31.00;6.43;;;4.60;99.90;;;;;;4836751;29;20093;-85
2020/12/19 16:48:12;;;;;;;25.70;6.80;;;4.50;99.90;;;;;;4842535;29;20030;-82
2020/12/19 16:50:39;;;;;;;25.85;6.60;;;4.40;99.90;;;;;;4838810;29;20121;-85
2020/12/19 16:53:05;;;;;;;19.98;8.30;;;4.30;99.90;;;;;;4852415;29;20423;-82
2020/12/19 16:55:31;;;;;;;17.10;8.82;;;4.20;99.90;;;;;;4842554;29;20421;-83
2020/12/19 16:57:57;;;;;;;18.98;8.93;;;4.10;99.90;;;;;;4842424;29;20041;-81
2020/12/19 17:00:23;;;;;;;25.90;8.73;;;4.10;99.90;;;;;;4842334;29;20026;-87
2020/12/19 17:02:49;;;;;;;24.75;7.25;;;4.30;99.90;;;;;;4842358;29;20074;-82
2020/12/19 17:05:15;;;;;;;15.80;7.07;;;4.50;99.90;;;;;;4842165;29;20064;-81
2020/12/19 17:07:41;;;;;;;16.95;7.05;;;4.50;99.90;;;;;;4842474;29;20034;-77
2020/12/19 17:10:08;;;;;;;16.85;6.47;;;4.30;99.90;;;;;;4841955;29;20042;-78
2020/12/19 17:12:35;;;;;;;33.53;9.70;;;4.20;99.90;;;;;;4841798;29;20103;-78
2020/12/19 17:15:02;;;;;;;30.92;7.20;;;4.10;99.90;;;;;;4835733;29;20026;-81
2020/12/19 17:17:31;;;;;;;21.10;7.95;;;4.00;99.90;;;;;;4831297;29;20523;-77
2020/12/19 17:19:57;;;;;;;15.07;6.75;;;3.90;99.90;;;;;;4838953;29;20137;-75
2020/12/19 17:22:23;;;;;;;22.95;6.05;;;3.70;99.90;;;;;;4841748;29;20178;-77
2020/12/19 17:24:49;;;;;;;24.02;8.73;;;3.60;99.90;;;;;;4840828;29;20367;-77
2020/12/19 17:27:15;;;;;;;27.75;9.02;;;3.60;99.90;;;;;;4835834;29;20034;-77
2020/12/19 17:29:40;;;;;;;20.55;7.80;;;3.60;99.90;;;;;;4834638;29;20041;-77
2020/12/19 17:32:06;;;;;;;22.30;6.78;;;3.50;99.90;;;;;;4841523;29;20367;-76
2020/12/19 17:34:32;;;;;;;15.65;7.57;;;3.60;99.90;;;;;;4841911;29;20061;-76
2020/12/19 17:36:58;;;;;;;24.27;7.50;;;3.60;99.90;;;;;;4841521;29;20113;-76
2020/12/19 17:39:24;;;;;;;33.67;8.55;;;3.50;99.90;;;;;;4841908;29;20094;-76
2020/12/19 17:41:50;;;;;;;23.23;7.57;;;3.50;99.90;;;;;;4841921;29;20117;-77
2020/12/19 17:44:16;;;;;;;17.63;6.00;;;3.50;99.90;;;;;;4823412;29;20034;-76
2020/12/19 17:46:42;;;;;;;18.70;4.90;;;3.50;99.90;;;;;;4834357;29;20478;-77
2020/12/19 17:49:07;;;;;;;20.67;5.40;;;3.50;99.90;;;;;;4828565;29;20033;-77
2020/12/19 17:51:33;;;;;;;13.63;4.70;;;3.50;99.90;;;;;;4841480;29;20030;-77
2020/12/19 17:54:00;;;;;;;14.40;5.85;;;3.60;99.90;;;;;;4841420;29;20068;-76
2020/12/19 17:56:25;;;;;;;10.60;5.90;;;3.50;99.90;;;;;;4841093;29;20375;-77
2020/12/19 17:58:51;;;;;;;8.85;5.50;;;3.50;99.90;;;;;;4828598;29;20091;-76
2020/12/19 18:01:18;;;;;;;15.18;5.28;;;3.50;99.90;;;;;;4841252;29;20030;-77
2020/12/19 18:03:45;;;;;;;15.75;5.18;;;3.50;99.90;;;;;;4841325;29;20036;-77
2020/12/19 18:06:12;;;;;;;12.48;4.45;;;3.50;99.90;;;;;;4851326;29;20131;-77
2020/12/19 18:08:39;;;;;;;16.08;4.70;;;3.50;99.90;;;;;;4832662;29;20091;-76